sensor_id;sensor_type;location;lat;lon;timestamp;P1;durP1;ratioP1;P2;durP2;ratioP2
38779;SDS011;29273;49.962;9.768;2023-02-28T00:00:25;1.40;;;1.30;;
38779;SDS011;29273;49.962;9.768;2023-02-28T00:02:51;1.30;;;1.20;;
38779;SDS011;29273;49.962;9.768;2023-02-28T00:05:17;1.45;;;1.35;;
38779;SDS011;29273;49.962;9.768;2023-02-28T00:07:44;1.95;;;1.50;;
38779;SDS011;29273;49.962;9.768;2023-02-28T00:10:12;1.45;;;1.30;;
38779;SDS011;29273;49.962;9.768;2023-02-28T00:12:39;1.38;;;1.25;;
38779;SDS011;29273;49.962;9.768;2023-02-28T00:15:06;1.60;;;1.50;;
38779;SDS011;29273;49.962;9.768;2023-02-28T00:17:35;1.42;;;1.33;;
38779;SDS011;29273;49.962;9.768;2023-02-28T00:20:02;1.27;;;1.17;;
38779;SDS011;29273;49.962;9.768;2023-02-28T00:22:30;1.58;;;1.25;;
38779;SDS011;29273;49.962;9.768;2023-02-28T00:24:55;2.60;;;1.33;;
38779;SDS011;29273;49.962;9.768;2023-02-28T00:27:21;1.80;;;1.23;;
38779;SDS011;29273;49.962;9.768;2023-02-28T00:29:46;2.85;;;1.45;;
38779;SDS011;29273;49.962;9.768;2023-02-28T00:32:12;1.50;;;1.40;;
38779;SDS011;29273;49.962;9.768;2023-02-28T00:34:37;2.47;;;1.35;;
38779;SDS011;29273;49.962;9.768;2023-02-28T00:37:04;1.67;;;1.58;;
38779;SDS011;29273;49.962;9.768;2023-02-28T00:39:34;2.42;;;1.63;;
38779;SDS011;29273;49.962;9.768;2023-02-28T00:42:01;2.72;;;1.60;;
38779;SDS011;29273;49.962;9.768;2023-02-28T00:44:39;2.50;;;1.60;;
38779;SDS011;29273;49.962;9.768;2023-02-28T00:47:04;2.25;;;1.58;;
38779;SDS011;29273;49.962;9.768;2023-02-28T00:49:30;2.13;;;1.50;;
38779;SDS011;29273;49.962;9.768;2023-02-28T00:51:56;1.92;;;1.67;;
38779;SDS011;29273;49.962;9.768;2023-02-28T00:54:22;2.00;;;1.60;;
38779;SDS011;29273;49.962;9.768;2023-02-28T00:56:48;1.60;;;1.40;;
38779;SDS011;29273;49.962;9.768;2023-02-28T00:59:14;3.92;;;1.70;;
38779;SDS011;29273;49.962;9.768;2023-02-28T01:01:41;1.48;;;1.38;;
38779;SDS011;29273;49.962;9.768;2023-02-28T01:04:08;1.55;;;1.20;;
38779;SDS011;29273;49.962;9.768;2023-02-28T01:06:34;2.30;;;1.20;;
38779;SDS011;29273;49.962;9.768;2023-02-28T01:09:01;1.52;;;1.30;;
38779;SDS011;29273;49.962;9.768;2023-02-28T01:11:28;1.65;;;1.20;;
38779;SDS011;29273;49.962;9.768;2023-02-28T01:13:53;2.20;;;1.23;;
38779;SDS011;29273;49.962;9.768;2023-02-28T01:16:19;1.38;;;1.25;;
38779;SDS011;29273;49.962;9.768;2023-02-28T01:18:44;1.38;;;1.25;;
38779;SDS011;29273;49.962;9.768;2023-02-28T01:21:11;1.48;;;1.38;;
38779;SDS011;29273;49.962;9.768;2023-02-28T01:23:39;1.65;;;1.30;;
38779;SDS011;29273;49.962;9.768;2023-02-28T01:26:06;1.42;;;1.17;;
38779;SDS011;29273;49.962;9.768;2023-02-28T01:28:52;1.65;;;1.50;;
38779;SDS011;29273;49.962;9.768;2023-02-28T01:31:19;1.27;;;1.17;;
38779;SDS011;29273;49.962;9.768;2023-02-28T01:33:45;1.40;;;1.20;;
38779;SDS011;29273;49.962;9.768;2023-02-28T01:36:12;1.40;;;1.25;;
38779;SDS011;29273;49.962;9.768;2023-02-28T01:38:42;1.50;;;1.40;;
38779;SDS011;29273;49.962;9.768;2023-02-28T01:41:09;1.50;;;1.40;;
38779;SDS011;29273;49.962;9.768;2023-02-28T01:46:07;1.42;;;1.33;;
38779;SDS011;29273;49.962;9.768;2023-02-28T01:48:33;1.40;;;1.30;;
38779;SDS011;29273;49.962;9.768;2023-02-28T01:51:03;1.83;;;1.63;;
38779;SDS011;29273;49.962;9.768;2023-02-28T01:53:36;1.40;;;1.30;;
38779;SDS011;29273;49.962;9.768;2023-02-28T01:56:06;1.75;;;1.38;;
38779;SDS011;29273;49.962;9.768;2023-02-28T01:58:34;1.58;;;1.48;;
38779;SDS011;29273;49.962;9.768;2023-02-28T02:01:01;1.67;;;1.45;;
38779;SDS011;29273;49.962;9.768;2023-02-28T02:03:28;1.67;;;1.40;;
38779;SDS011;29273;49.962;9.768;2023-02-28T02:05:54;1.42;;;1.27;;
38779;SDS011;29273;49.962;9.768;2023-02-28T02:08:21;1.52;;;1.25;;
38779;SDS011;29273;49.962;9.768;2023-02-28T02:10:57;1.38;;;1.27;;
38779;SDS011;29273;49.962;9.768;2023-02-28T02:13:30;1.83;;;1.27;;
38779;SDS011;29273;49.962;9.768;2023-02-28T02:18:51;2.03;;;1.50;;
38779;SDS011;29273;49.962;9.768;2023-02-28T02:24:13;1.40;;;1.30;;
38779;SDS011;29273;49.962;9.768;2023-02-28T02:29:47;1.50;;;1.40;;
38779;SDS011;29273;49.962;9.768;2023-02-28T02:35:19;1.60;;;1.48;;
38779;SDS011;29273;49.962;9.768;2023-02-28T02:44:15;1.88;;;1.60;;
38779;SDS011;29273;49.962;9.768;2023-02-28T02:46:37;1.52;;;1.35;;
38779;SDS011;29273;49.962;9.768;2023-02-28T02:49:08;1.42;;;1.33;;
38779;SDS011;29273;49.962;9.768;2023-02-28T02:51:37;1.70;;;1.50;;
38779;SDS011;29273;49.962;9.768;2023-02-28T02:54:10;1.40;;;1.20;;
38779;SDS011;29273;49.962;9.768;2023-02-28T02:56:44;1.35;;;1.25;;
38779;SDS011;29273;49.962;9.768;2023-02-28T02:59:12;1.50;;;1.40;;
38779;SDS011;29273;49.962;9.768;2023-02-28T03:01:48;1.80;;;1.60;;
38779;SDS011;29273;49.962;9.768;2023-02-28T03:04:19;1.73;;;1.60;;
38779;SDS011;29273;49.962;9.768;2023-02-28T03:09:13;1.52;;;1.20;;
38779;SDS011;29273;49.962;9.768;2023-02-28T03:11:38;2.33;;;1.67;;
38779;SDS011;29273;49.962;9.768;2023-02-28T03:17:09;1.60;;;1.50;;
38779;SDS011;29273;49.962;9.768;2023-02-28T03:22:40;1.92;;;1.50;;
38779;SDS011;29273;49.962;9.768;2023-02-28T03:25:13;2.03;;;1.60;;
38779;SDS011;29273;49.962;9.768;2023-02-28T03:30:48;1.77;;;1.65;;
38779;SDS011;29273;49.962;9.768;2023-02-28T03:35:55;2.28;;;1.83;;
38779;SDS011;29273;49.962;9.768;2023-02-28T03:38:46;1.90;;;1.70;;
38779;SDS011;29273;49.962;9.768;2023-02-28T03:41:20;1.60;;;1.50;;
38779;SDS011;29273;49.962;9.768;2023-02-28T03:44:08;2.05;;;1.50;;
38779;SDS011;29273;49.962;9.768;2023-02-28T03:46:41;1.65;;;1.40;;
38779;SDS011;29273;49.962;9.768;2023-02-28T03:49:17;1.88;;;1.40;;
38779;SDS011;29273;49.962;9.768;2023-02-28T03:51:47;1.75;;;1.65;;
38779;SDS011;29273;49.962;9.768;2023-02-28T03:54:17;1.65;;;1.55;;
38779;SDS011;29273;49.962;9.768;2023-02-28T03:56:53;1.70;;;1.50;;
38779;SDS011;29273;49.962;9.768;2023-02-28T03:59:25;2.28;;;1.50;;
38779;SDS011;29273;49.962;9.768;2023-02-28T04:01:55;3.08;;;1.75;;
38779;SDS011;29273;49.962;9.768;2023-02-28T04:04:23;1.90;;;1.70;;
38779;SDS011;29273;49.962;9.768;2023-02-28T04:06:49;1.65;;;1.40;;
38779;SDS011;29273;49.962;9.768;2023-02-28T04:09:16;1.50;;;1.40;;
38779;SDS011;29273;49.962;9.768;2023-02-28T04:11:44;1.98;;;1.60;;
38779;SDS011;29273;49.962;9.768;2023-02-28T04:14:13;1.70;;;1.57;;
38779;SDS011;29273;49.962;9.768;2023-02-28T04:16:40;2.00;;;1.80;;
38779;SDS011;29273;49.962;9.768;2023-02-28T04:19:06;1.60;;;1.50;;
38779;SDS011;29273;49.962;9.768;2023-02-28T04:21:38;2.45;;;1.70;;
38779;SDS011;29273;49.962;9.768;2023-02-28T04:24:06;2.05;;;1.83;;
38779;SDS011;29273;49.962;9.768;2023-02-28T04:26:39;2.15;;;1.90;;
38779;SDS011;29273;49.962;9.768;2023-02-28T04:29:10;1.77;;;1.67;;
38779;SDS011;29273;49.962;9.768;2023-02-28T04:31:37;3.83;;;1.92;;
38779;SDS011;29273;49.962;9.768;2023-02-28T04:34:03;1.70;;;1.58;;
38779;SDS011;29273;49.962;9.768;2023-02-28T04:36:29;2.53;;;1.70;;
38779;SDS011;29273;49.962;9.768;2023-02-28T04:38:54;2.03;;;1.80;;
38779;SDS011;29273;49.962;9.768;2023-02-28T04:41:20;2.13;;;1.90;;
38779;SDS011;29273;49.962;9.768;2023-02-28T04:43:46;1.77;;;1.58;;
38779;SDS011;29273;49.962;9.768;2023-02-28T04:46:12;1.95;;;1.73;;
38779;SDS011;29273;49.962;9.768;2023-02-28T04:48:38;1.63;;;1.52;;
38779;SDS011;29273;49.962;9.768;2023-02-28T04:51:08;2.10;;;1.88;;
38779;SDS011;29273;49.962;9.768;2023-02-28T04:53:36;1.50;;;1.40;;
38779;SDS011;29273;49.962;9.768;2023-02-28T04:56:03;1.65;;;1.55;;
38779;SDS011;29273;49.962;9.768;2023-02-28T04:58:29;2.05;;;1.60;;
38779;SDS011;29273;49.962;9.768;2023-02-28T05:01:00;1.85;;;1.55;;
38779;SDS011;29273;49.962;9.768;2023-02-28T05:03:40;1.73;;;1.63;;
38779;SDS011;29273;49.962;9.768;2023-02-28T05:06:07;1.60;;;1.50;;
38779;SDS011;29273;49.962;9.768;2023-02-28T05:08:33;1.80;;;1.55;;
38779;SDS011;29273;49.962;9.768;2023-02-28T05:10:59;1.70;;;1.60;;
38779;SDS011;29273;49.962;9.768;2023-02-28T05:13:26;1.75;;;1.60;;
38779;SDS011;29273;49.962;9.768;2023-02-28T05:15:52;2.00;;;1.90;;
38779;SDS011;29273;49.962;9.768;2023-02-28T05:18:18;1.98;;;1.70;;
38779;SDS011;29273;49.962;9.768;2023-02-28T05:20:43;2.20;;;1.83;;
38779;SDS011;29273;49.962;9.768;2023-02-28T05:23:10;1.90;;;1.60;;
38779;SDS011;29273;49.962;9.768;2023-02-28T05:25:38;1.70;;;1.60;;
38779;SDS011;29273;49.962;9.768;2023-02-28T05:28:04;1.92;;;1.73;;
38779;SDS011;29273;49.962;9.768;2023-02-28T05:30:29;2.97;;;1.60;;
38779;SDS011;29273;49.962;9.768;2023-02-28T05:32:56;2.05;;;1.50;;
38779;SDS011;29273;49.962;9.768;2023-02-28T05:35:22;2.30;;;1.75;;
38779;SDS011;29273;49.962;9.768;2023-02-28T05:37:49;1.67;;;1.58;;
38779;SDS011;29273;49.962;9.768;2023-02-28T05:40:14;1.85;;;1.60;;
38779;SDS011;29273;49.962;9.768;2023-02-28T05:42:40;2.13;;;1.70;;
38779;SDS011;29273;49.962;9.768;2023-02-28T05:45:06;1.80;;;1.70;;
38779;SDS011;29273;49.962;9.768;2023-02-28T05:47:32;2.28;;;1.70;;
38779;SDS011;29273;49.962;9.768;2023-02-28T05:49:58;2.20;;;1.80;;
38779;SDS011;29273;49.962;9.768;2023-02-28T05:52:23;2.42;;;1.55;;
38779;SDS011;29273;49.962;9.768;2023-02-28T05:54:49;2.13;;;1.73;;
38779;SDS011;29273;49.962;9.768;2023-02-28T05:57:14;1.75;;;1.55;;
38779;SDS011;29273;49.962;9.768;2023-02-28T05:59:40;2.05;;;1.75;;
38779;SDS011;29273;49.962;9.768;2023-02-28T06:02:06;2.05;;;1.80;;
38779;SDS011;29273;49.962;9.768;2023-02-28T06:04:37;1.50;;;1.40;;
38779;SDS011;29273;49.962;9.768;2023-02-28T06:07:02;1.45;;;1.35;;
38779;SDS011;29273;49.962;9.768;2023-02-28T06:09:28;1.85;;;1.65;;
38779;SDS011;29273;49.962;9.768;2023-02-28T06:11:54;1.80;;;1.60;;
38779;SDS011;29273;49.962;9.768;2023-02-28T06:14:20;1.60;;;1.20;;
38779;SDS011;29273;49.962;9.768;2023-02-28T06:16:45;1.50;;;1.40;;
38779;SDS011;29273;49.962;9.768;2023-02-28T06:19:11;1.52;;;1.42;;
38779;SDS011;29273;49.962;9.768;2023-02-28T06:21:37;1.67;;;1.58;;
38779;SDS011;29273;49.962;9.768;2023-02-28T06:24:03;1.63;;;1.52;;
38779;SDS011;29273;49.962;9.768;2023-02-28T06:26:29;2.00;;;1.75;;
38779;SDS011;29273;49.962;9.768;2023-02-28T06:28:55;1.80;;;1.60;;
38779;SDS011;29273;49.962;9.768;2023-02-28T06:31:21;1.60;;;1.50;;
38779;SDS011;29273;49.962;9.768;2023-02-28T06:33:48;2.38;;;1.92;;
38779;SDS011;29273;49.962;9.768;2023-02-28T06:36:14;1.90;;;1.63;;
38779;SDS011;29273;49.962;9.768;2023-02-28T06:38:41;2.25;;;1.35;;
38779;SDS011;29273;49.962;9.768;2023-02-28T06:41:08;1.63;;;1.50;;
38779;SDS011;29273;49.962;9.768;2023-02-28T06:43:36;1.90;;;1.70;;
38779;SDS011;29273;49.962;9.768;2023-02-28T06:46:05;2.15;;;1.77;;
38779;SDS011;29273;49.962;9.768;2023-02-28T06:48:32;2.80;;;1.70;;
38779;SDS011;29273;49.962;9.768;2023-02-28T06:51:04;2.13;;;1.92;;
38779;SDS011;29273;49.962;9.768;2023-02-28T06:53:31;1.55;;;1.45;;
38779;SDS011;29273;49.962;9.768;2023-02-28T06:55:57;1.65;;;1.42;;
38779;SDS011;29273;49.962;9.768;2023-02-28T06:58:22;2.30;;;1.67;;
38779;SDS011;29273;49.962;9.768;2023-02-28T07:00:50;2.75;;;1.80;;
38779;SDS011;29273;49.962;9.768;2023-02-28T07:03:16;1.80;;;1.60;;
38779;SDS011;29273;49.962;9.768;2023-02-28T07:05:43;1.75;;;1.60;;
38779;SDS011;29273;49.962;9.768;2023-02-28T07:08:09;2.00;;;1.80;;
38779;SDS011;29273;49.962;9.768;2023-02-28T07:10:36;2.42;;;1.90;;
38779;SDS011;29273;49.962;9.768;2023-02-28T07:13:03;2.28;;;1.95;;
38779;SDS011;29273;49.962;9.768;2023-02-28T07:15:29;2.40;;;2.10;;
38779;SDS011;29273;49.962;9.768;2023-02-28T07:17:54;2.47;;;1.90;;
38779;SDS011;29273;49.962;9.768;2023-02-28T07:20:21;2.90;;;2.20;;
38779;SDS011;29273;49.962;9.768;2023-02-28T07:22:48;2.67;;;2.03;;
38779;SDS011;29273;49.962;9.768;2023-02-28T07:27:49;2.22;;;2.03;;
38779;SDS011;29273;49.962;9.768;2023-02-28T07:30:15;2.63;;;2.22;;
38779;SDS011;29273;49.962;9.768;2023-02-28T07:32:41;3.03;;;2.20;;
38779;SDS011;29273;49.962;9.768;2023-02-28T07:35:06;3.08;;;2.10;;
38779;SDS011;29273;49.962;9.768;2023-02-28T07:37:32;2.47;;;2.28;;
38779;SDS011;29273;49.962;9.768;2023-02-28T07:40:04;2.67;;;2.15;;
38779;SDS011;29273;49.962;9.768;2023-02-28T07:42:36;2.40;;;2.20;;
38779;SDS011;29273;49.962;9.768;2023-02-28T07:45:04;2.65;;;2.45;;
38779;SDS011;29273;49.962;9.768;2023-02-28T07:47:30;2.50;;;2.22;;
38779;SDS011;29273;49.962;9.768;2023-02-28T07:49:56;2.83;;;2.17;;
38779;SDS011;29273;49.962;9.768;2023-02-28T07:52:22;2.70;;;2.20;;
38779;SDS011;29273;49.962;9.768;2023-02-28T07:54:49;2.75;;;2.47;;
38779;SDS011;29273;49.962;9.768;2023-02-28T07:57:15;2.72;;;2.30;;
38779;SDS011;29273;49.962;9.768;2023-02-28T07:59:41;3.55;;;2.65;;
38779;SDS011;29273;49.962;9.768;2023-02-28T08:02:06;2.78;;;2.50;;
38779;SDS011;29273;49.962;9.768;2023-02-28T08:04:33;2.92;;;2.63;;
38779;SDS011;29273;49.962;9.768;2023-02-28T08:06:59;3.00;;;2.63;;
38779;SDS011;29273;49.962;9.768;2023-02-28T08:09:24;3.03;;;2.47;;
38779;SDS011;29273;49.962;9.768;2023-02-28T08:11:50;3.10;;;2.65;;
38779;SDS011;29273;49.962;9.768;2023-02-28T08:14:15;3.47;;;2.95;;
38779;SDS011;29273;49.962;9.768;2023-02-28T08:16:41;4.45;;;3.10;;
38779;SDS011;29273;49.962;9.768;2023-02-28T08:19:08;2.92;;;2.58;;
38779;SDS011;29273;49.962;9.768;2023-02-28T08:21:34;3.67;;;2.58;;
38779;SDS011;29273;49.962;9.768;2023-02-28T08:23:59;3.05;;;2.55;;
38779;SDS011;29273;49.962;9.768;2023-02-28T08:26:25;3.05;;;2.67;;
38779;SDS011;29273;49.962;9.768;2023-02-28T08:28:51;2.80;;;2.58;;
38779;SDS011;29273;49.962;9.768;2023-02-28T08:31:17;4.25;;;2.80;;
38779;SDS011;29273;49.962;9.768;2023-02-28T08:33:43;3.78;;;3.17;;
38779;SDS011;29273;49.962;9.768;2023-02-28T08:36:10;3.10;;;2.80;;
38779;SDS011;29273;49.962;9.768;2023-02-28T08:38:36;3.95;;;2.83;;
38779;SDS011;29273;49.962;9.768;2023-02-28T08:41:07;3.92;;;3.15;;
38779;SDS011;29273;49.962;9.768;2023-02-28T08:43:34;3.42;;;2.78;;
38779;SDS011;29273;49.962;9.768;2023-02-28T08:46:00;3.22;;;2.92;;
38779;SDS011;29273;49.962;9.768;2023-02-28T08:48:26;4.22;;;3.17;;
38779;SDS011;29273;49.962;9.768;2023-02-28T08:51:03;3.53;;;2.88;;
38779;SDS011;29273;49.962;9.768;2023-02-28T08:53:30;3.75;;;3.20;;
38779;SDS011;29273;49.962;9.768;2023-02-28T08:56:01;3.00;;;2.70;;
38779;SDS011;29273;49.962;9.768;2023-02-28T08:58:28;4.15;;;3.30;;
38779;SDS011;29273;49.962;9.768;2023-02-28T09:00:54;4.28;;;3.30;;
38779;SDS011;29273;49.962;9.768;2023-02-28T09:03:21;3.20;;;2.90;;
38779;SDS011;29273;49.962;9.768;2023-02-28T09:05:54;3.40;;;3.10;;
38779;SDS011;29273;49.962;9.768;2023-02-28T09:08:21;4.75;;;3.22;;
38779;SDS011;29273;49.962;9.768;2023-02-28T09:10:47;4.32;;;3.35;;
38779;SDS011;29273;49.962;9.768;2023-02-28T09:13:13;3.88;;;3.35;;
38779;SDS011;29273;49.962;9.768;2023-02-28T09:15:38;3.67;;;3.22;;
38779;SDS011;29273;49.962;9.768;2023-02-28T09:18:04;4.28;;;3.47;;
38779;SDS011;29273;49.962;9.768;2023-02-28T09:20:29;4.03;;;3.40;;
38779;SDS011;29273;49.962;9.768;2023-02-28T09:22:55;4.43;;;3.60;;
38779;SDS011;29273;49.962;9.768;2023-02-28T09:25:20;4.35;;;3.53;;
38779;SDS011;29273;49.962;9.768;2023-02-28T09:27:46;4.18;;;3.78;;
38779;SDS011;29273;49.962;9.768;2023-02-28T09:30:11;3.95;;;3.30;;
38779;SDS011;29273;49.962;9.768;2023-02-28T09:32:37;4.18;;;3.35;;
38779;SDS011;29273;49.962;9.768;2023-02-28T09:35:03;4.13;;;3.28;;
38779;SDS011;29273;49.962;9.768;2023-02-28T09:37:29;3.88;;;3.45;;
38779;SDS011;29273;49.962;9.768;2023-02-28T09:39:55;4.72;;;3.75;;
38779;SDS011;29273;49.962;9.768;2023-02-28T09:42:23;4.10;;;3.60;;
38779;SDS011;29273;49.962;9.768;2023-02-28T09:44:55;4.03;;;3.50;;
38779;SDS011;29273;49.962;9.768;2023-02-28T09:50:03;3.40;;;3.05;;
38779;SDS011;29273;49.962;9.768;2023-02-28T09:52:41;3.70;;;3.30;;
38779;SDS011;29273;49.962;9.768;2023-02-28T09:55:29;4.53;;;3.72;;
38779;SDS011;29273;49.962;9.768;2023-02-28T09:57:58;3.75;;;3.35;;
38779;SDS011;29273;49.962;9.768;2023-02-28T10:00:36;4.72;;;3.67;;
38779;SDS011;29273;49.962;9.768;2023-02-28T10:03:24;4.20;;;3.03;;
38779;SDS011;29273;49.962;9.768;2023-02-28T10:06:02;3.65;;;3.30;;
38779;SDS011;29273;49.962;9.768;2023-02-28T10:08:45;3.53;;;3.05;;
38779;SDS011;29273;49.962;9.768;2023-02-28T10:11:21;4.00;;;3.60;;
38779;SDS011;29273;49.962;9.768;2023-02-28T10:16:22;3.70;;;3.20;;
38779;SDS011;29273;49.962;9.768;2023-02-28T10:19:11;4.13;;;3.25;;
38779;SDS011;29273;49.962;9.768;2023-02-28T10:21:39;3.33;;;3.03;;
38779;SDS011;29273;49.962;9.768;2023-02-28T10:24:23;4.55;;;3.65;;
38779;SDS011;29273;49.962;9.768;2023-02-28T10:27:29;4.00;;;3.13;;
38779;SDS011;29273;49.962;9.768;2023-02-28T10:29:52;3.45;;;3.10;;
38779;SDS011;29273;49.962;9.768;2023-02-28T10:32:24;3.42;;;3.13;;
38779;SDS011;29273;49.962;9.768;2023-02-28T10:34:56;3.92;;;3.35;;
38779;SDS011;29273;49.962;9.768;2023-02-28T10:37:31;3.72;;;3.25;;
38779;SDS011;29273;49.962;9.768;2023-02-28T10:39:57;4.03;;;3.35;;
38779;SDS011;29273;49.962;9.768;2023-02-28T10:42:26;3.80;;;3.17;;
38779;SDS011;29273;49.962;9.768;2023-02-28T10:47:31;4.35;;;3.58;;
38779;SDS011;29273;49.962;9.768;2023-02-28T10:49:59;4.15;;;3.38;;
38779;SDS011;29273;49.962;9.768;2023-02-28T10:52:38;4.05;;;3.45;;
38779;SDS011;29273;49.962;9.768;2023-02-28T10:55:15;3.22;;;2.92;;
38779;SDS011;29273;49.962;9.768;2023-02-28T10:57:47;3.72;;;3.25;;
38779;SDS011;29273;49.962;9.768;2023-02-28T11:00:18;3.35;;;2.75;;
38779;SDS011;29273;49.962;9.768;2023-02-28T11:02:46;3.83;;;3.33;;
38779;SDS011;29273;49.962;9.768;2023-02-28T11:05:29;4.13;;;3.33;;
38779;SDS011;29273;49.962;9.768;2023-02-28T11:08:04;4.22;;;2.90;;
38779;SDS011;29273;49.962;9.768;2023-02-28T11:10:37;3.20;;;2.85;;
38779;SDS011;29273;49.962;9.768;2023-02-28T11:13:03;4.00;;;3.15;;
38779;SDS011;29273;49.962;9.768;2023-02-28T11:15:31;3.72;;;3.20;;
38779;SDS011;29273;49.962;9.768;2023-02-28T11:17:59;4.63;;;4.13;;
38779;SDS011;29273;49.962;9.768;2023-02-28T11:20:30;4.28;;;3.85;;
38779;SDS011;29273;49.962;9.768;2023-02-28T11:22:58;4.10;;;3.70;;
38779;SDS011;29273;49.962;9.768;2023-02-28T11:25:28;4.60;;;3.97;;
38779;SDS011;29273;49.962;9.768;2023-02-28T11:27:58;5.13;;;4.05;;
38779;SDS011;29273;49.962;9.768;2023-02-28T11:33:01;4.25;;;3.42;;
38779;SDS011;29273;49.962;9.768;2023-02-28T11:36:01;4.72;;;3.97;;
38779;SDS011;29273;49.962;9.768;2023-02-28T11:38:30;4.38;;;3.53;;
38779;SDS011;29273;49.962;9.768;2023-02-28T11:41:16;4.32;;;3.83;;
38779;SDS011;29273;49.962;9.768;2023-02-28T11:43:57;6.00;;;3.50;;
38779;SDS011;29273;49.962;9.768;2023-02-28T11:46:33;3.95;;;3.38;;
38779;SDS011;29273;49.962;9.768;2023-02-28T11:55:42;4.13;;;3.65;;
38779;SDS011;29273;49.962;9.768;2023-02-28T12:17:51;4.53;;;3.20;;
38779;SDS011;29273;49.962;9.768;2023-02-28T12:26:04;5.38;;;3.70;;
38779;SDS011;29273;49.962;9.768;2023-02-28T12:28:44;3.85;;;3.25;;
38779;SDS011;29273;49.962;9.768;2023-02-28T12:33:47;4.55;;;3.10;;
38779;SDS011;29273;49.962;9.768;2023-02-28T12:36:17;3.50;;;3.10;;
38779;SDS011;29273;49.962;9.768;2023-02-28T12:38:51;4.10;;;3.40;;
38779;SDS011;29273;49.962;9.768;2023-02-28T12:44:17;3.58;;;3.20;;
38779;SDS011;29273;49.962;9.768;2023-02-28T12:46:49;3.40;;;3.10;;
38779;SDS011;29273;49.962;9.768;2023-02-28T12:49:18;3.90;;;3.45;;
38779;SDS011;29273;49.962;9.768;2023-02-28T12:51:46;4.05;;;3.38;;
38779;SDS011;29273;49.962;9.768;2023-02-28T12:56:56;3.47;;;3.17;;
38779;SDS011;29273;49.962;9.768;2023-02-28T12:59:36;4.03;;;3.50;;
38779;SDS011;29273;49.962;9.768;2023-02-28T13:02:30;3.92;;;3.47;;
38779;SDS011;29273;49.962;9.768;2023-02-28T13:10:46;3.60;;;3.20;;
38779;SDS011;29273;49.962;9.768;2023-02-28T13:13:23;3.05;;;2.80;;
38779;SDS011;29273;49.962;9.768;2023-02-28T13:18:46;3.08;;;2.70;;
38779;SDS011;29273;49.962;9.768;2023-02-28T13:34:31;3.50;;;3.10;;
38779;SDS011;29273;49.962;9.768;2023-02-28T13:42:36;3.70;;;3.30;;
38779;SDS011;29273;49.962;9.768;2023-02-28T13:47:53;3.50;;;3.05;;
38779;SDS011;29273;49.962;9.768;2023-02-28T13:53:12;4.35;;;3.45;;
38779;SDS011;29273;49.962;9.768;2023-02-28T14:04:08;3.50;;;3.20;;
38779;SDS011;29273;49.962;9.768;2023-02-28T14:06:50;3.30;;;3.00;;
38779;SDS011;29273;49.962;9.768;2023-02-28T14:11:54;3.22;;;2.92;;
38779;SDS011;29273;49.962;9.768;2023-02-28T14:17:04;3.65;;;3.10;;
38779;SDS011;29273;49.962;9.768;2023-02-28T14:19:33;3.25;;;2.90;;
38779;SDS011;29273;49.962;9.768;2023-02-28T14:27:32;3.77;;;3.07;;
38779;SDS011;29273;49.962;9.768;2023-02-28T14:36:23;4.15;;;3.30;;
38779;SDS011;29273;49.962;9.768;2023-02-28T14:38:52;3.67;;;3.00;;
38779;SDS011;29273;49.962;9.768;2023-02-28T14:41:26;3.65;;;2.90;;
38779;SDS011;29273;49.962;9.768;2023-02-28T14:43:57;4.00;;;3.28;;
38779;SDS011;29273;49.962;9.768;2023-02-28T14:46:26;3.35;;;3.05;;
38779;SDS011;29273;49.962;9.768;2023-02-28T14:48:59;4.07;;;3.10;;
38779;SDS011;29273;49.962;9.768;2023-02-28T14:51:25;3.13;;;2.80;;
38779;SDS011;29273;49.962;9.768;2023-02-28T14:53:53;3.35;;;2.92;;
38779;SDS011;29273;49.962;9.768;2023-02-28T14:56:25;3.30;;;3.00;;
38779;SDS011;29273;49.962;9.768;2023-02-28T14:59:02;3.92;;;3.20;;
38779;SDS011;29273;49.962;9.768;2023-02-28T15:01:29;3.25;;;2.88;;
38779;SDS011;29273;49.962;9.768;2023-02-28T15:03:59;4.10;;;3.45;;
38779;SDS011;29273;49.962;9.768;2023-02-28T15:06:29;3.20;;;2.90;;
38779;SDS011;29273;49.962;9.768;2023-02-28T15:09:09;5.10;;;3.30;;
38779;SDS011;29273;49.962;9.768;2023-02-28T15:11:45;4.40;;;3.55;;
38779;SDS011;29273;49.962;9.768;2023-02-28T15:14:15;3.47;;;2.88;;
38779;SDS011;29273;49.962;9.768;2023-02-28T15:16:44;4.00;;;3.13;;
38779;SDS011;29273;49.962;9.768;2023-02-28T15:21:58;3.42;;;3.00;;
38779;SDS011;29273;49.962;9.768;2023-02-28T15:24:32;2.80;;;2.38;;
38779;SDS011;29273;49.962;9.768;2023-02-28T15:27:04;3.50;;;3.00;;
38779;SDS011;29273;49.962;9.768;2023-02-28T15:29:34;2.97;;;2.67;;
38779;SDS011;29273;49.962;9.768;2023-02-28T15:32:16;3.30;;;2.80;;
38779;SDS011;29273;49.962;9.768;2023-02-28T15:34:49;3.58;;;2.80;;
38779;SDS011;29273;49.962;9.768;2023-02-28T15:40:10;2.97;;;2.45;;
38779;SDS011;29273;49.962;9.768;2023-02-28T15:42:36;3.33;;;2.88;;
38779;SDS011;29273;49.962;9.768;2023-02-28T15:45:02;3.95;;;2.80;;
38779;SDS011;29273;49.962;9.768;2023-02-28T15:47:35;3.72;;;3.10;;
38779;SDS011;29273;49.962;9.768;2023-02-28T15:50:03;4.22;;;3.33;;
38779;SDS011;29273;49.962;9.768;2023-02-28T15:52:42;4.13;;;3.30;;
38779;SDS011;29273;49.962;9.768;2023-02-28T15:55:10;4.20;;;3.20;;
38779;SDS011;29273;49.962;9.768;2023-02-28T15:57:43;4.03;;;3.50;;
38779;SDS011;29273;49.962;9.768;2023-02-28T16:00:12;3.65;;;2.90;;
38779;SDS011;29273;49.962;9.768;2023-02-28T16:02:40;3.55;;;2.85;;
38779;SDS011;29273;49.962;9.768;2023-02-28T16:07:35;3.13;;;2.60;;
38779;SDS011;29273;49.962;9.768;2023-02-28T16:10:05;3.40;;;3.10;;
38779;SDS011;29273;49.962;9.768;2023-02-28T16:12:32;2.97;;;2.63;;
38779;SDS011;29273;49.962;9.768;2023-02-28T16:14:59;4.18;;;3.30;;
38779;SDS011;29273;49.962;9.768;2023-02-28T16:17:33;3.85;;;2.95;;
38779;SDS011;29273;49.962;9.768;2023-02-28T16:20:00;4.03;;;3.25;;
38779;SDS011;29273;49.962;9.768;2023-02-28T16:22:25;4.28;;;3.10;;
38779;SDS011;29273;49.962;9.768;2023-02-28T16:24:51;4.03;;;3.33;;
38779;SDS011;29273;49.962;9.768;2023-02-28T16:27:18;2.88;;;2.60;;
38779;SDS011;29273;49.962;9.768;2023-02-28T16:29:50;3.65;;;2.88;;
38779;SDS011;29273;49.962;9.768;2023-02-28T16:32:15;3.38;;;2.88;;
38779;SDS011;29273;49.962;9.768;2023-02-28T16:34:42;3.50;;;3.00;;
38779;SDS011;29273;49.962;9.768;2023-02-28T16:37:10;5.03;;;3.42;;
38779;SDS011;29273;49.962;9.768;2023-02-28T16:39:39;5.28;;;4.13;;
38779;SDS011;29273;49.962;9.768;2023-02-28T16:42:05;6.03;;;4.18;;
38779;SDS011;29273;49.962;9.768;2023-02-28T16:44:32;5.40;;;4.25;;
38779;SDS011;29273;49.962;9.768;2023-02-28T16:47:00;5.97;;;4.07;;
38779;SDS011;29273;49.962;9.768;2023-02-28T16:49:26;4.45;;;3.33;;
38779;SDS011;29273;49.962;9.768;2023-02-28T16:51:52;4.70;;;3.80;;
38779;SDS011;29273;49.962;9.768;2023-02-28T16:54:17;4.90;;;3.63;;
38779;SDS011;29273;49.962;9.768;2023-02-28T16:56:45;4.35;;;3.40;;
38779;SDS011;29273;49.962;9.768;2023-02-28T16:59:12;4.20;;;3.25;;
38779;SDS011;29273;49.962;9.768;2023-02-28T17:01:46;5.07;;;3.58;;
38779;SDS011;29273;49.962;9.768;2023-02-28T17:04:12;3.95;;;3.40;;
38779;SDS011;29273;49.962;9.768;2023-02-28T17:06:39;4.90;;;3.53;;
38779;SDS011;29273;49.962;9.768;2023-02-28T17:09:05;5.40;;;3.80;;
38779;SDS011;29273;49.962;9.768;2023-02-28T17:11:30;5.82;;;3.90;;
38779;SDS011;29273;49.962;9.768;2023-02-28T17:13:56;5.43;;;3.90;;
38779;SDS011;29273;49.962;9.768;2023-02-28T17:16:26;5.20;;;3.92;;
38779;SDS011;29273;49.962;9.768;2023-02-28T17:21:21;6.10;;;3.95;;
38779;SDS011;29273;49.962;9.768;2023-02-28T17:23:47;5.38;;;4.00;;
38779;SDS011;29273;49.962;9.768;2023-02-28T17:26:13;6.20;;;4.57;;
38779;SDS011;29273;49.962;9.768;2023-02-28T17:28:40;6.50;;;4.85;;
38779;SDS011;29273;49.962;9.768;2023-02-28T17:31:07;7.22;;;5.45;;
38779;SDS011;29273;49.962;9.768;2023-02-28T17:33:32;7.03;;;4.93;;
38779;SDS011;29273;49.962;9.768;2023-02-28T17:35:58;8.00;;;5.05;;